SKBO

El Dorado International Airport

Bogota, Colombia
TAF SKBO 202300Z 2100/2124 07005KT 9999 SCT017 BKN080 PROB40 2102/2105 8000 DZ BKN015 BECMG 2114/2116 14012KT TEMPO 2119/2122 8000 DZRA SCT015TCU BKN017 TX19/2118Z TN10/2111Z
Issued Valid From Valid To
Apr-20 @ 23:00 UTC
(5 hours ago)
Apr-21 @ 00:00 UTC
(4 hours ago)
Apr-22 @ 00:00 UTC
(in 20 hours)
Apr-21 @ 00:00 to Apr-21 @ 14:00
TAF SKBO 202300Z 2100/2124 07005KT 9999 SCT017 BKN080
Wind Visibility Clouds
70° at 5 knots 10,000+ meters
  • Scattered at 1,700' AGL
  • Broken at 8,000' AGL
Probable  (Probability 40%) Apr-21 @ 02:00 to Apr-21 @ 05:00
PROB40 2102/2105 8000 DZ BKN015
Visibility Clouds Conditions
7,998 meters
  • Broken at 1,500' AGL
  • Drizzle
Becoming Apr-21 @ 14:00 to Apr-22 @ 00:00
BECMG 2114/2116 14012KT
Wind Visibility Clouds
140° at 12 knots 10,000+ meters
  • Scattered at 1,700' AGL
  • Broken at 8,000' AGL
Temporary Apr-21 @ 19:00 to Apr-21 @ 22:00
TEMPO 2119/2122 8000 DZRA SCT015TCU BKN017 TX19/2118Z TN10/2111Z
Visibility Clouds Conditions
7,998 meters
  • Scattered at 1,500' AGL
  • Broken at 1,700' AGL
  • Drizzle
  • Rain
TAF SKBO 202300Z 2100/2124 07005KT 9999 SCT017 BKN080 PROB40 2102/2105 8000 DZ BKN015 BECMG 2114/2116 14012KT TEMPO 2119/2122 8000 DZRA SCT015TCU BKN017 TX19/2118Z TN10/2111Z
Issued Apr-20 @ 23:00 UTC
(5 hours ago)
Valid From Apr-21 @ 00:00 UTC
(4 hours ago)
Valid To Apr-22 @ 00:00 UTC
(in 20 hours)
Apr-21 @ 00:00 - Apr-21 @ 14:00
Wind Visibility
70° at 5 knots 10,000+ meters
Clouds
  • Scattered at 1,700' AGL
  • Broken at 8,000' AGL
Probability 40% Probable Apr-21 @ 02:00 - Apr-21 @ 05:00
Clouds
  • Broken at 1,500' AGL
Conditions
  • Drizzle
Becoming Apr-21 @ 14:00 - Apr-22 @ 00:00
Wind Visibility
140° at 12 knots 10,000+ meters
Clouds
  • Scattered at 1,700' AGL
  • Broken at 8,000' AGL
Temporary Apr-21 @ 19:00 - Apr-21 @ 22:00
Clouds
  • Scattered at 1,500' AGL
  • Broken at 1,700' AGL
Conditions
  • Drizzle
  • Rain